createdAt,value
2023-01-10T00:00:08.524Z,90.05
2023-01-10T00:02:38.119Z,89.83
2023-01-10T00:05:06.952Z,89.58
2023-01-10T00:07:34.851Z,89.71
2023-01-10T00:10:02.761Z,90.25
2023-01-10T00:12:48.560Z,89.77
2023-01-10T00:15:16.712Z,90.23
2023-01-10T00:17:45.889Z,90.35
2023-01-10T00:20:14.433Z,89.41
2023-01-10T00:22:42.338Z,89.59
2023-01-10T00:25:10.451Z,90.08
2023-01-10T00:27:38.320Z,90.20
2023-01-10T00:30:13.847Z,90.79
2023-01-10T00:32:42.728Z,90.70
2023-01-10T00:35:12.987Z,91.09
2023-01-10T00:37:41.417Z,90.55
2023-01-10T00:40:11.717Z,90.86
2023-01-10T00:42:57.308Z,91.38
2023-01-10T00:45:26.717Z,90.52
2023-01-10T00:47:54.813Z,91.64
2023-01-10T00:50:24.039Z,90.65
2023-01-10T00:52:52.025Z,90.57
2023-01-10T00:55:19.993Z,90.68
2023-01-10T00:57:47.777Z,90.48
2023-01-10T01:00:16.202Z,89.62
2023-01-10T01:02:44.120Z,89.72
2023-01-10T01:05:12.183Z,90.14
2023-01-10T01:07:41.408Z,89.90
2023-01-10T01:10:28.485Z,89.91
2023-01-10T01:12:57.376Z,89.05
2023-01-10T01:15:26.652Z,89.88
2023-01-10T01:17:54.686Z,89.39
2023-01-10T01:20:22.501Z,90.12
2023-01-10T01:22:51.636Z,89.34
2023-01-10T01:25:19.589Z,90.07
2023-01-10T01:27:47.423Z,89.68
2023-01-10T01:30:16.106Z,89.70
2023-01-10T01:32:43.987Z,89.35
2023-01-10T01:35:15.034Z,89.55
2023-01-10T01:37:43.283Z,89.18
2023-01-10T01:40:14.516Z,89.77
2023-01-10T01:42:43.385Z,89.38
2023-01-10T01:45:34.178Z,89.77
2023-01-10T01:48:09.040Z,89.87
2023-01-10T01:50:42.675Z,89.88
2023-01-10T01:53:15.335Z,90.38
2023-01-10T01:55:47.327Z,90.82
2023-01-10T01:58:18.623Z,90.40
2023-01-10T02:00:46.595Z,90.33
2023-01-10T02:03:17.759Z,90.98
2023-01-10T02:05:46.360Z,91.53
2023-01-10T02:08:15.023Z,91.15
2023-01-10T02:10:49.957Z,91.86
2023-01-10T02:13:20.581Z,91.62
2023-01-10T02:15:48.581Z,91.57
2023-01-10T02:18:16.495Z,91.63
2023-01-10T02:21:00.032Z,91.98
2023-01-10T02:23:48.822Z,91.17
2023-01-10T02:26:51.682Z,92.18
2023-01-10T02:29:47.158Z,92.17
2023-01-10T02:32:41.712Z,91.79
2023-01-10T02:35:29.699Z,92.19
2023-01-10T02:38:06.591Z,91.79
2023-01-10T02:40:46.045Z,91.26
2023-01-10T02:43:18.504Z,92.18
2023-01-10T02:45:51.445Z,91.74
2023-01-10T02:48:22.469Z,91.53
2023-01-10T02:51:03.065Z,91.46
2023-01-10T02:53:35.509Z,91.62
2023-01-10T02:56:41.948Z,91.20
2023-01-10T02:59:44.020Z,91.52
2023-01-10T03:02:22.345Z,91.50
2023-01-10T03:04:57.635Z,91.38
2023-01-10T03:07:33.498Z,90.29
2023-01-10T03:10:07.613Z,90.80
2023-01-10T03:12:42.061Z,90.63
2023-01-10T03:15:13.710Z,90.95
2023-01-10T03:17:44.321Z,90.38
2023-01-10T03:20:14.138Z,90.42
2023-01-10T03:22:43.498Z,89.71
2023-01-10T03:25:15.356Z,89.94
2023-01-10T03:27:53.042Z,89.74
2023-01-10T03:30:28.118Z,89.38
2023-01-10T03:32:58.044Z,88.91
2023-01-10T03:35:36.420Z,89.50
2023-01-10T03:38:08.792Z,89.24
2023-01-10T03:40:44.814Z,88.76
2023-01-10T03:43:37.776Z,89.33
2023-01-10T03:46:09.806Z,89.18
2023-01-10T03:48:42.485Z,88.88
2023-01-10T03:51:13.715Z,89.12
2023-01-10T03:53:41.643Z,89.58
2023-01-10T03:56:13.783Z,89.22
2023-01-10T03:58:42.033Z,89.19
2023-01-10T04:01:10.064Z,89.27
2023-01-10T04:03:38.139Z,89.22
2023-01-10T04:06:06.551Z,88.66
2023-01-10T04:08:35.748Z,88.97
2023-01-10T04:11:04.419Z,88.41
2023-01-10T04:13:32.213Z,88.51
2023-01-10T04:16:00.934Z,88.51
2023-01-10T04:18:28.837Z,87.74
2023-01-10T04:20:56.735Z,88.13
2023-01-10T04:23:24.620Z,87.79
2023-01-10T04:25:53.830Z,87.80
2023-01-10T04:28:23.814Z,87.64
2023-01-10T04:30:52.277Z,87.09
2023-01-10T04:33:20.083Z,87.49
2023-01-10T04:35:51.682Z,87.15
2023-01-10T04:38:20.105Z,87.94
2023-01-10T04:40:54.982Z,87.76
2023-01-10T04:43:23.230Z,87.51
2023-01-10T04:45:51.175Z,87.72
2023-01-10T04:48:19.377Z,87.72
2023-01-10T04:50:51.614Z,87.40
2023-01-10T04:53:20.104Z,87.27
2023-01-10T04:55:48.224Z,87.45
2023-01-10T04:58:17.840Z,87.19
2023-01-10T05:00:45.706Z,86.83
2023-01-10T05:03:13.705Z,86.93
2023-01-10T05:05:41.687Z,87.11
2023-01-10T05:08:09.499Z,86.75
2023-01-10T05:10:37.331Z,86.96
2023-01-10T05:13:05.231Z,87.04
2023-01-10T05:15:34.507Z,87.71
2023-01-10T05:18:02.939Z,87.40
2023-01-10T05:20:30.860Z,87.47
2023-01-10T05:22:58.762Z,87.27
2023-01-10T05:25:26.747Z,87.30
2023-01-10T05:27:55.140Z,87.50
2023-01-10T05:30:23.045Z,87.12
2023-01-10T05:32:52.258Z,86.79
2023-01-10T05:35:20.132Z,86.63
2023-01-10T05:37:47.962Z,87.02
2023-01-10T05:40:15.878Z,86.60
2023-01-10T05:42:43.754Z,86.52
2023-01-10T05:45:12.499Z,86.51
2023-01-10T05:47:40.470Z,86.75
2023-01-10T05:50:11.341Z,86.53
2023-01-10T05:52:39.292Z,86.39
2023-01-10T05:55:07.740Z,86.39
2023-01-10T05:57:35.675Z,86.23
2023-01-10T06:00:05.243Z,86.09
2023-01-10T06:02:39.488Z,85.68
2023-01-10T06:05:09.785Z,85.40
2023-01-10T06:07:38.272Z,85.45
2023-01-10T06:10:06.874Z,85.57
2023-01-10T06:12:34.706Z,85.08
2023-01-10T06:15:03.330Z,84.93
2023-01-10T06:17:31.431Z,85.18
2023-01-10T06:19:59.381Z,84.76
2023-01-10T06:22:28.921Z,84.49
2023-01-10T06:24:56.737Z,84.07
2023-01-10T06:27:24.605Z,84.34
2023-01-10T06:29:52.562Z,84.15
2023-01-10T06:32:20.434Z,84.27
2023-01-10T06:34:48.236Z,84.05
2023-01-10T06:37:16.079Z,84.42
2023-01-10T06:39:46.316Z,84.00
2023-01-10T06:42:14.267Z,84.12
2023-01-10T06:44:42.098Z,83.45
2023-01-10T06:47:10.204Z,83.22
2023-01-10T06:49:38.253Z,83.09
2023-01-10T06:52:06.463Z,83.70
2023-01-10T06:54:34.495Z,83.37
2023-01-10T06:57:04.752Z,83.69
2023-01-10T06:59:32.612Z,83.74
2023-01-10T07:02:00.517Z,83.79
2023-01-10T07:04:28.497Z,83.83
2023-01-10T07:06:56.344Z,83.61
2023-01-10T07:09:24.104Z,83.56
2023-01-10T07:11:51.969Z,83.02
2023-01-10T07:14:21.462Z,83.14
2023-01-10T07:16:49.417Z,83.18
2023-01-10T07:19:19.961Z,82.74
2023-01-10T07:21:47.794Z,82.91
2023-01-10T07:24:15.677Z,82.66
2023-01-10T07:26:43.521Z,82.25
2023-01-10T07:29:11.311Z,82.35
2023-01-10T07:31:40.615Z,82.57
2023-01-10T07:34:08.714Z,82.37
2023-01-10T07:36:39.297Z,82.63
2023-01-10T07:39:07.598Z,82.19
2023-01-10T07:41:35.407Z,82.12
2023-01-10T07:44:04.315Z,81.91
2023-01-10T07:46:32.254Z,81.80
2023-01-10T07:49:01.603Z,81.78
2023-01-10T07:51:29.604Z,81.56
2023-01-10T07:53:57.373Z,81.81
2023-01-10T07:56:25.471Z,81.44
2023-01-10T07:58:53.331Z,81.16
2023-01-10T08:01:21.221Z,81.23
2023-01-10T08:03:49.038Z,81.53
2023-01-10T08:06:18.326Z,81.03
2023-01-10T08:08:46.328Z,81.68
2023-01-10T08:11:14.249Z,81.00
2023-01-10T08:13:42.092Z,81.06
2023-01-10T08:16:10.182Z,81.07
2023-01-10T08:18:38.991Z,81.09
2023-01-10T08:21:07.168Z,81.29
2023-01-10T08:23:36.797Z,81.31
2023-01-10T08:26:05.838Z,81.75
2023-01-10T08:28:34.163Z,81.57
2023-01-10T08:31:06.808Z,81.75
2023-01-10T08:33:34.878Z,81.83
2023-01-10T08:36:02.728Z,81.72
2023-01-10T08:38:30.720Z,81.60
2023-01-10T08:40:59.943Z,81.55
2023-01-10T08:43:27.805Z,81.13
2023-01-10T08:45:55.593Z,81.74
2023-01-10T08:48:23.545Z,81.77
2023-01-10T08:50:51.455Z,82.16
2023-01-10T08:53:19.443Z,81.99
2023-01-10T08:55:47.282Z,82.15
2023-01-10T08:58:16.686Z,82.03
2023-01-10T09:00:45.048Z,81.97
2023-01-10T09:03:12.939Z,81.49
2023-01-10T09:05:41.971Z,82.30
2023-01-10T09:08:12.956Z,82.00
2023-01-10T09:10:41.606Z,81.99
2023-01-10T09:13:09.638Z,82.10
2023-01-10T09:15:39.713Z,82.20
2023-01-10T09:18:08.947Z,82.91
2023-01-10T09:20:38.225Z,82.89
2023-01-10T09:23:08.420Z,82.66
2023-01-10T09:25:36.991Z,82.88
2023-01-10T09:28:06.355Z,82.72
2023-01-10T09:30:34.557Z,82.69
2023-01-10T09:34:33.276Z,82.54
2023-01-10T09:37:01.221Z,82.60
2023-01-10T09:39:29.401Z,82.73
2023-01-10T09:42:12.559Z,82.99
2023-01-10T09:44:50.277Z,83.18
2023-01-10T09:47:25.900Z,82.58
2023-01-10T09:50:06.592Z,82.74
2023-01-10T09:52:39.468Z,83.14
2023-01-10T09:55:20.078Z,82.97
2023-01-10T09:57:48.993Z,82.69
2023-01-10T10:00:20.914Z,83.13
2023-01-10T10:02:53.210Z,83.27
2023-01-10T10:05:25.506Z,82.96
2023-01-10T10:07:56.125Z,83.13
2023-01-10T10:10:26.370Z,82.86
2023-01-10T10:13:26.408Z,82.74
2023-01-10T10:16:06.430Z,83.08
2023-01-10T10:18:45.784Z,83.10
2023-01-10T10:21:22.783Z,82.58
2023-01-10T10:24:07.628Z,82.83
2023-01-10T10:26:37.149Z,82.86
2023-01-10T10:29:37.555Z,83.14
2023-01-10T10:32:26.308Z,82.59
2023-01-10T10:35:00.024Z,83.03
2023-01-10T10:37:33.759Z,82.62
2023-01-10T10:40:04.730Z,82.73
2023-01-10T10:42:36.922Z,82.67
2023-01-10T10:45:08.685Z,82.36
2023-01-10T10:47:39.523Z,82.14
2023-01-10T10:50:20.457Z,83.05
2023-01-10T10:52:49.983Z,82.72
2023-01-10T10:55:22.088Z,82.74
2023-01-10T10:57:59.716Z,82.67
2023-01-10T11:00:29.693Z,82.76
2023-01-10T11:03:04.411Z,82.68
2023-01-10T11:05:37.569Z,81.75
2023-01-10T11:08:11.044Z,81.77
2023-01-10T11:10:40.381Z,80.94
2023-01-10T11:13:26.535Z,81.22
2023-01-10T11:15:56.227Z,80.76
2023-01-10T11:18:26.570Z,79.59
2023-01-10T11:21:00.771Z,80.54
2023-01-10T11:23:42.132Z,80.32
2023-01-10T11:26:23.234Z,79.49
2023-01-10T11:28:53.318Z,79.31
2023-01-10T11:31:29.218Z,79.47
2023-01-10T11:33:58.340Z,79.62
2023-01-10T11:36:26.360Z,79.21
2023-01-10T11:39:03.693Z,79.10
2023-01-10T11:41:34.413Z,78.19
2023-01-10T11:44:18.626Z,77.41
2023-01-10T11:46:48.251Z,77.62
2023-01-10T11:49:24.709Z,77.15
2023-01-10T11:51:57.737Z,77.33
2023-01-10T11:54:29.293Z,77.47
2023-01-10T11:56:59.762Z,77.10
2023-01-10T11:59:29.214Z,76.95
2023-01-10T12:02:04.702Z,77.04
2023-01-10T12:04:40.267Z,77.98
2023-01-10T12:07:10.614Z,77.65
2023-01-10T12:09:42.426Z,77.52
2023-01-10T12:12:22.784Z,77.74
2023-01-10T12:14:51.556Z,77.39
2023-01-10T12:17:24.281Z,77.19
2023-01-10T12:19:53.674Z,76.60
2023-01-10T12:22:28.010Z,76.44
2023-01-10T12:25:00.197Z,76.86
2023-01-10T12:27:30.883Z,76.19
2023-01-10T12:30:06.115Z,75.98
2023-01-10T12:32:43.141Z,76.69
2023-01-10T12:35:18.201Z,76.67
2023-01-10T12:37:52.449Z,75.66
2023-01-10T12:40:31.434Z,76.00
2023-01-10T12:43:23.721Z,76.39
2023-01-10T12:45:54.706Z,74.85
2023-01-10T12:48:28.600Z,75.61
2023-01-10T12:51:02.567Z,75.58
2023-01-10T12:53:34.221Z,75.47
2023-01-10T12:56:08.017Z,75.47
2023-01-10T12:58:42.974Z,75.97
2023-01-10T13:01:16.277Z,75.59
2023-01-10T13:03:46.590Z,75.06
2023-01-10T13:06:23.975Z,75.90
2023-01-10T13:08:53.170Z,75.70
2023-01-10T13:11:26.844Z,75.31
2023-01-10T13:13:59.915Z,75.33
2023-01-10T13:16:35.892Z,76.28
2023-01-10T13:19:07.125Z,75.46
2023-01-10T13:21:35.883Z,75.09
2023-01-10T13:24:05.923Z,75.40
2023-01-10T13:26:53.567Z,75.30
2023-01-10T13:29:24.147Z,75.43
2023-01-10T13:31:57.562Z,75.78
2023-01-10T13:34:28.457Z,75.48
2023-01-10T13:36:59.272Z,76.26
2023-01-10T13:39:33.108Z,75.75
2023-01-10T13:42:50.783Z,76.42
2023-01-10T13:45:27.156Z,75.68
2023-01-10T13:48:00.770Z,75.86
2023-01-10T13:50:50.836Z,75.99
2023-01-10T13:53:45.269Z,75.52
2023-01-10T13:56:34.892Z,75.53
2023-01-10T13:59:23.686Z,75.92
2023-01-10T14:02:10.659Z,75.83
2023-01-10T14:04:46.459Z,76.54
2023-01-10T14:07:22.914Z,76.61
2023-01-10T14:09:52.515Z,77.44
2023-01-10T14:12:28.104Z,77.26
2023-01-10T14:15:01.320Z,76.90
2023-01-10T14:17:31.197Z,76.84
2023-01-10T14:20:04.105Z,76.46
2023-01-10T14:22:34.262Z,76.43
2023-01-10T14:25:05.014Z,76.41
2023-01-10T14:27:44.552Z,76.27
2023-01-10T14:30:20.921Z,76.67
2023-01-10T14:32:52.142Z,76.73
2023-01-10T14:35:23.394Z,76.53
2023-01-10T14:37:55.910Z,76.81
2023-01-10T14:40:29.726Z,77.18
2023-01-10T14:43:00.501Z,76.42
2023-01-10T14:45:39.541Z,76.01
2023-01-10T14:48:27.124Z,76.99
2023-01-10T14:51:07.437Z,76.92
2023-01-10T14:53:35.523Z,76.32
2023-01-10T14:56:03.360Z,76.33
2023-01-10T14:58:31.426Z,76.73
2023-01-10T15:01:00.763Z,76.09
2023-01-10T15:03:28.650Z,76.67
2023-01-10T15:05:58.692Z,75.98
2023-01-10T15:08:31.300Z,76.60
2023-01-10T15:11:04.400Z,76.76
2023-01-10T15:13:36.663Z,76.25
2023-01-10T15:16:07.808Z,76.30
2023-01-10T15:18:40.709Z,76.49
2023-01-10T15:21:11.906Z,76.13
2023-01-10T15:23:41.655Z,76.11
2023-01-10T15:26:15.125Z,76.75
2023-01-10T15:28:48.545Z,76.07
2023-01-10T15:31:18.073Z,75.53
2023-01-10T15:33:56.280Z,75.69
2023-01-10T15:36:27.250Z,76.39
2023-01-10T15:38:55.916Z,76.27
2023-01-10T15:41:24.787Z,76.58
2023-01-10T15:43:54.483Z,76.27
2023-01-10T15:46:26.645Z,76.10
2023-01-10T15:48:56.469Z,76.99
2023-01-10T15:51:29.771Z,76.23
2023-01-10T15:54:03.796Z,76.12
2023-01-10T15:56:35.923Z,75.92
2023-01-10T15:59:05.566Z,76.61
2023-01-10T16:01:35.833Z,76.48
2023-01-10T16:04:06.113Z,76.23
2023-01-10T16:06:36.632Z,76.43
2023-01-10T16:09:08.194Z,76.42
2023-01-10T16:11:57.366Z,76.39
2023-01-10T16:14:25.412Z,76.95
2023-01-10T16:16:54.626Z,76.53
2023-01-10T16:19:22.842Z,76.17
2023-01-10T16:21:57.744Z,76.32
2023-01-10T16:24:27.865Z,76.36
2023-01-10T16:26:58.255Z,76.36
2023-01-10T16:29:26.077Z,76.97
2023-01-10T16:31:55.421Z,76.73
2023-01-10T16:34:24.456Z,77.06
2023-01-10T16:36:52.398Z,76.48
2023-01-10T16:39:22.573Z,76.42
2023-01-10T16:42:07.830Z,76.32
2023-01-10T16:44:35.919Z,76.00
2023-01-10T16:47:07.109Z,77.13
2023-01-10T16:49:35.164Z,76.37
2023-01-10T16:52:03.686Z,76.52
2023-01-10T16:54:35.370Z,75.96
2023-01-10T16:57:03.335Z,76.39
2023-01-10T16:59:31.366Z,75.91
2023-01-10T17:01:59.663Z,76.63
2023-01-10T17:04:32.717Z,76.08
2023-01-10T17:07:00.758Z,75.70
2023-01-10T17:09:30.321Z,76.24
2023-01-10T17:12:02.813Z,75.91
2023-01-10T17:14:33.219Z,76.33
2023-01-10T17:17:03.093Z,76.00
2023-01-10T17:19:32.752Z,76.64
2023-01-10T17:22:01.578Z,76.54
2023-01-10T17:24:29.954Z,76.16
2023-01-10T17:26:57.889Z,76.90
2023-01-10T17:29:25.701Z,76.27
2023-01-10T17:31:53.663Z,76.90
2023-01-10T17:34:21.924Z,76.51
2023-01-10T17:36:51.251Z,76.80
2023-01-10T17:39:19.170Z,76.81
2023-01-10T17:41:47.097Z,77.21
2023-01-10T17:44:15.079Z,76.93
2023-01-10T17:46:42.950Z,76.23
2023-01-10T17:49:13.223Z,76.16
2023-01-10T17:51:41.398Z,76.92
2023-01-10T17:54:10.666Z,76.96
2023-01-10T17:56:38.502Z,76.45
2023-01-10T17:59:06.501Z,76.19
2023-01-10T18:01:34.533Z,76.64
2023-01-10T18:04:02.799Z,76.29
2023-01-10T18:06:30.632Z,76.45
2023-01-10T18:09:01.074Z,76.09
2023-01-10T18:11:31.787Z,75.95
2023-01-10T18:13:59.848Z,75.61
2023-01-10T18:16:27.847Z,75.74
2023-01-10T18:18:57.032Z,75.38
2023-01-10T18:21:26.010Z,75.36
2023-01-10T18:23:56.923Z,75.55
2023-01-10T18:26:24.779Z,75.37
2023-01-10T18:28:54.239Z,75.94
2023-01-10T18:31:22.197Z,75.10
2023-01-10T18:33:53.644Z,74.78
2023-01-10T18:36:23.082Z,74.84
2023-01-10T18:38:51.878Z,74.53
2023-01-10T18:41:21.574Z,75.19
2023-01-10T18:43:49.750Z,74.94
2023-01-10T18:46:21.717Z,75.10
2023-01-10T18:48:52.861Z,75.47
2023-01-10T18:51:22.655Z,75.55
2023-01-10T18:53:52.831Z,75.34
2023-01-10T18:56:20.919Z,75.29
2023-01-10T18:58:48.840Z,75.77
2023-01-10T19:01:22.176Z,75.10
2023-01-10T19:03:50.923Z,75.69
2023-01-10T19:06:22.659Z,75.97
2023-01-10T19:08:51.707Z,76.12
2023-01-10T19:11:23.043Z,75.99
2023-01-10T19:13:53.889Z,75.64
2023-01-10T19:16:25.037Z,76.15
2023-01-10T19:18:54.912Z,75.20
2023-01-10T19:21:25.180Z,74.80
2023-01-10T19:23:56.485Z,74.88
2023-01-10T19:26:25.421Z,74.59
2023-01-10T19:28:53.782Z,74.21
2023-01-10T19:31:25.688Z,74.57
2023-01-10T19:33:54.743Z,74.56
2023-01-10T19:36:24.209Z,74.67
2023-01-10T19:38:55.329Z,74.44
2023-01-10T19:41:23.560Z,74.63
2023-01-10T19:43:58.161Z,74.48
2023-01-10T19:46:28.801Z,74.39
2023-01-10T19:48:57.467Z,74.86
2023-01-10T19:51:25.559Z,74.86
2023-01-10T19:53:54.330Z,75.04
2023-01-10T19:56:23.391Z,75.27
2023-01-10T19:58:51.666Z,75.11
2023-01-10T20:01:21.232Z,75.57
2023-01-10T20:03:50.743Z,75.04
2023-01-10T20:06:21.741Z,74.75
2023-01-10T20:08:50.018Z,74.93
2023-01-10T20:11:18.837Z,74.94
2023-01-10T20:13:48.322Z,75.03
2023-01-10T20:16:18.524Z,74.69
2023-01-10T20:18:46.905Z,74.83
2023-01-10T20:21:18.563Z,75.08
2023-01-10T20:23:48.189Z,75.01
2023-01-10T20:26:19.309Z,75.17
2023-01-10T20:28:48.518Z,74.52
2023-01-10T20:31:18.900Z,74.70
2023-01-10T20:33:47.244Z,74.49
2023-01-10T20:36:18.529Z,75.14
2023-01-10T20:38:46.685Z,74.58
2023-01-10T20:41:17.487Z,74.99
2023-01-10T20:43:45.978Z,74.68
2023-01-10T20:46:16.400Z,75.06
2023-01-10T20:48:44.745Z,74.97
2023-01-10T20:51:14.677Z,75.26
2023-01-10T20:53:44.261Z,74.46
2023-01-10T20:56:14.761Z,74.62
2023-01-10T20:58:42.975Z,74.79
2023-01-10T21:01:16.923Z,74.63
2023-01-10T21:03:48.185Z,74.44
2023-01-10T21:06:18.249Z,74.70
2023-01-10T21:08:48.788Z,74.73
2023-01-10T21:11:18.238Z,74.72
2023-01-10T21:13:46.155Z,74.82
2023-01-10T21:16:16.369Z,74.59
2023-01-10T21:18:44.922Z,74.67
2023-01-10T21:21:14.420Z,74.95
2023-01-10T21:23:42.941Z,74.75
2023-01-10T21:26:14.826Z,74.68
2023-01-10T21:28:46.589Z,75.21
2023-01-10T21:31:16.662Z,74.86
2023-01-10T21:33:44.890Z,75.20
2023-01-10T21:36:13.822Z,75.06
2023-01-10T21:38:42.344Z,75.20
2023-01-10T21:41:14.994Z,75.25
2023-01-10T21:43:44.429Z,75.00
2023-01-10T21:46:13.053Z,75.12
2023-01-10T21:48:41.047Z,75.25
2023-01-10T21:51:08.897Z,74.88
2023-01-10T21:53:37.060Z,74.87
2023-01-10T21:56:05.341Z,74.73
2023-01-10T21:58:34.659Z,74.31
2023-01-10T22:01:02.517Z,74.69
2023-01-10T22:03:31.321Z,74.26
2023-01-10T22:06:04.300Z,74.37
2023-01-10T22:08:32.698Z,74.17
2023-01-10T22:11:00.663Z,74.29
2023-01-10T22:13:28.595Z,74.34
2023-01-10T22:16:00.261Z,73.81
2023-01-10T22:18:28.688Z,74.19
2023-01-10T22:20:57.249Z,74.16
2023-01-10T22:23:25.836Z,74.19
2023-01-10T22:26:01.216Z,74.21
2023-01-10T22:28:29.998Z,74.33
2023-01-10T22:30:59.434Z,74.61
2023-01-10T22:33:29.845Z,74.59
2023-01-10T22:35:58.366Z,74.43
2023-01-10T22:38:26.228Z,74.19
2023-01-10T22:40:54.207Z,74.55
2023-01-10T22:43:22.090Z,74.51
2023-01-10T22:45:50.077Z,74.34
2023-01-10T22:48:19.465Z,74.64
2023-01-10T22:50:49.956Z,74.38
2023-01-10T22:53:17.965Z,74.52
2023-01-10T22:55:45.791Z,74.62
2023-01-10T22:58:13.764Z,74.63
2023-01-10T23:00:41.603Z,74.52
2023-01-10T23:03:09.725Z,74.50
2023-01-10T23:05:39.029Z,74.72
2023-01-10T23:08:06.918Z,74.88
2023-01-10T23:10:35.071Z,75.16
2023-01-10T23:13:04.968Z,75.32
2023-01-10T23:15:32.970Z,75.53
2023-01-10T23:18:01.030Z,75.69
2023-01-10T23:20:28.886Z,75.84
2023-01-10T23:22:58.130Z,76.11
2023-01-10T23:25:26.299Z,76.16
2023-01-10T23:27:54.356Z,76.01
2023-01-10T23:30:22.432Z,75.97
2023-01-10T23:32:51.207Z,75.98
2023-01-10T23:35:19.185Z,75.94
2023-01-10T23:37:47.047Z,76.00
2023-01-10T23:40:16.484Z,75.53
2023-01-10T23:42:44.412Z,75.84
2023-01-10T23:45:12.454Z,75.54
2023-01-10T23:47:40.673Z,75.88
2023-01-10T23:50:09.963Z,75.77
2023-01-10T23:52:37.901Z,75.53
2023-01-10T23:55:06.563Z,75.48
2023-01-10T23:57:35.847Z,75.19
